sensor_id;sensor_type;location;lat;lon;timestamp;P1;durP1;ratioP1;P2;durP2;ratioP2
38851;SDS011;24605;50.092;9.182;2023-09-18T00:01:34;6.18;;;3.70;;
38851;SDS011;24605;50.092;9.182;2023-09-18T00:04:00;6.00;;;3.63;;
38851;SDS011;24605;50.092;9.182;2023-09-18T00:06:26;5.93;;;3.88;;
38851;SDS011;24605;50.092;9.182;2023-09-18T00:08:53;7.10;;;3.50;;
38851;SDS011;24605;50.092;9.182;2023-09-18T00:11:19;5.72;;;3.55;;
38851;SDS011;24605;50.092;9.182;2023-09-18T00:13:46;7.38;;;3.75;;
38851;SDS011;24605;50.092;9.182;2023-09-18T00:16:13;6.70;;;3.85;;
38851;SDS011;24605;50.092;9.182;2023-09-18T00:18:40;6.40;;;3.95;;
38851;SDS011;24605;50.092;9.182;2023-09-18T00:21:07;7.20;;;4.05;;
38851;SDS011;24605;50.092;9.182;2023-09-18T00:23:35;7.95;;;3.65;;
38851;SDS011;24605;50.092;9.182;2023-09-18T00:26:01;8.43;;;3.90;;
38851;SDS011;24605;50.092;9.182;2023-09-18T00:28:28;6.50;;;3.35;;
38851;SDS011;24605;50.092;9.182;2023-09-18T00:30:54;6.35;;;4.07;;
38851;SDS011;24605;50.092;9.182;2023-09-18T00:33:22;7.00;;;3.40;;
38851;SDS011;24605;50.092;9.182;2023-09-18T00:35:49;7.95;;;3.92;;
38851;SDS011;24605;50.092;9.182;2023-09-18T00:38:17;8.20;;;4.00;;
38851;SDS011;24605;50.092;9.182;2023-09-18T00:40:44;6.53;;;3.50;;
38851;SDS011;24605;50.092;9.182;2023-09-18T00:43:11;6.45;;;3.83;;
38851;SDS011;24605;50.092;9.182;2023-09-18T00:45:38;5.50;;;3.65;;
38851;SDS011;24605;50.092;9.182;2023-09-18T00:48:07;6.80;;;3.90;;
38851;SDS011;24605;50.092;9.182;2023-09-18T00:50:35;7.03;;;3.60;;
38851;SDS011;24605;50.092;9.182;2023-09-18T00:53:03;9.00;;;3.65;;
38851;SDS011;24605;50.092;9.182;2023-09-18T00:55:31;7.30;;;3.30;;
38851;SDS011;24605;50.092;9.182;2023-09-18T00:57:58;7.65;;;4.15;;
38851;SDS011;24605;50.092;9.182;2023-09-18T01:00:24;5.72;;;3.78;;
38851;SDS011;24605;50.092;9.182;2023-09-18T01:02:51;7.55;;;4.07;;
38851;SDS011;24605;50.092;9.182;2023-09-18T01:05:17;5.53;;;3.78;;
38851;SDS011;24605;50.092;9.182;2023-09-18T01:07:46;7.60;;;4.13;;
38851;SDS011;24605;50.092;9.182;2023-09-18T01:10:13;6.50;;;3.60;;
38851;SDS011;24605;50.092;9.182;2023-09-18T01:12:44;6.65;;;3.92;;
38851;SDS011;24605;50.092;9.182;2023-09-18T01:15:15;9.27;;;4.00;;
38851;SDS011;24605;50.092;9.182;2023-09-18T01:17:45;8.40;;;3.80;;
38851;SDS011;24605;50.092;9.182;2023-09-18T01:20:12;6.72;;;3.88;;
38851;SDS011;24605;50.092;9.182;2023-09-18T01:22:40;8.93;;;3.63;;
38851;SDS011;24605;50.092;9.182;2023-09-18T01:25:08;5.78;;;3.83;;
38851;SDS011;24605;50.092;9.182;2023-09-18T01:27:35;6.28;;;3.75;;
38851;SDS011;24605;50.092;9.182;2023-09-18T01:30:01;6.20;;;3.40;;
38851;SDS011;24605;50.092;9.182;2023-09-18T01:32:29;5.75;;;3.47;;
38851;SDS011;24605;50.092;9.182;2023-09-18T01:34:59;4.85;;;3.40;;
38851;SDS011;24605;50.092;9.182;2023-09-18T01:37:27;6.63;;;3.70;;
38851;SDS011;24605;50.092;9.182;2023-09-18T01:39:57;6.05;;;3.78;;
38851;SDS011;24605;50.092;9.182;2023-09-18T01:42:25;6.20;;;3.53;;
38851;SDS011;24605;50.092;9.182;2023-09-18T01:44:52;9.63;;;3.78;;
38851;SDS011;24605;50.092;9.182;2023-09-18T01:47:20;6.47;;;3.47;;
38851;SDS011;24605;50.092;9.182;2023-09-18T01:49:48;8.30;;;3.63;;
38851;SDS011;24605;50.092;9.182;2023-09-18T01:52:15;6.75;;;4.10;;
38851;SDS011;24605;50.092;9.182;2023-09-18T01:54:41;6.78;;;3.65;;
38851;SDS011;24605;50.092;9.182;2023-09-18T01:57:09;6.35;;;3.80;;
38851;SDS011;24605;50.092;9.182;2023-09-18T01:59:37;6.68;;;3.80;;
38851;SDS011;24605;50.092;9.182;2023-09-18T02:02:04;6.53;;;3.78;;
38851;SDS011;24605;50.092;9.182;2023-09-18T02:04:34;5.55;;;3.40;;
38851;SDS011;24605;50.092;9.182;2023-09-18T02:07:01;6.15;;;3.90;;
38851;SDS011;24605;50.092;9.182;2023-09-18T02:09:27;6.38;;;3.55;;
38851;SDS011;24605;50.092;9.182;2023-09-18T02:11:53;6.95;;;3.53;;
38851;SDS011;24605;50.092;9.182;2023-09-18T02:14:21;5.47;;;3.50;;
38851;SDS011;24605;50.092;9.182;2023-09-18T02:16:48;8.02;;;3.50;;
38851;SDS011;24605;50.092;9.182;2023-09-18T02:19:15;5.35;;;3.78;;
38851;SDS011;24605;50.092;9.182;2023-09-18T02:21:42;6.28;;;3.22;;
38851;SDS011;24605;50.092;9.182;2023-09-18T02:24:09;6.15;;;3.63;;
38851;SDS011;24605;50.092;9.182;2023-09-18T02:26:36;4.57;;;3.30;;
38851;SDS011;24605;50.092;9.182;2023-09-18T02:29:05;7.65;;;3.40;;
38851;SDS011;24605;50.092;9.182;2023-09-18T02:31:34;8.55;;;3.92;;
38851;SDS011;24605;50.092;9.182;2023-09-18T02:34:00;10.27;;;4.28;;
38851;SDS011;24605;50.092;9.182;2023-09-18T02:36:27;6.10;;;3.63;;
38851;SDS011;24605;50.092;9.182;2023-09-18T02:38:53;8.13;;;3.53;;
38851;SDS011;24605;50.092;9.182;2023-09-18T02:41:20;8.40;;;3.92;;
38851;SDS011;24605;50.092;9.182;2023-09-18T02:43:46;10.57;;;4.15;;
38851;SDS011;24605;50.092;9.182;2023-09-18T02:46:12;7.40;;;3.90;;
38851;SDS011;24605;50.092;9.182;2023-09-18T02:48:40;8.20;;;4.50;;
38851;SDS011;24605;50.092;9.182;2023-09-18T02:51:07;6.15;;;3.70;;
38851;SDS011;24605;50.092;9.182;2023-09-18T02:53:34;10.55;;;4.30;;
38851;SDS011;24605;50.092;9.182;2023-09-18T02:56:00;8.93;;;4.30;;
38851;SDS011;24605;50.092;9.182;2023-09-18T02:58:27;6.55;;;4.40;;
38851;SDS011;24605;50.092;9.182;2023-09-18T03:00:55;8.93;;;4.38;;
38851;SDS011;24605;50.092;9.182;2023-09-18T03:03:23;8.63;;;4.88;;
38851;SDS011;24605;50.092;9.182;2023-09-18T03:05:51;6.97;;;4.15;;
38851;SDS011;24605;50.092;9.182;2023-09-18T03:08:17;9.27;;;5.00;;
38851;SDS011;24605;50.092;9.182;2023-09-18T03:10:44;8.90;;;5.20;;
38851;SDS011;24605;50.092;9.182;2023-09-18T03:13:11;9.73;;;5.05;;
38851;SDS011;24605;50.092;9.182;2023-09-18T03:15:40;10.63;;;4.80;;
38851;SDS011;24605;50.092;9.182;2023-09-18T03:18:11;10.05;;;4.93;;
38851;SDS011;24605;50.092;9.182;2023-09-18T03:20:37;10.70;;;5.55;;
38851;SDS011;24605;50.092;9.182;2023-09-18T03:23:05;7.53;;;5.00;;
38851;SDS011;24605;50.092;9.182;2023-09-18T03:25:31;10.05;;;5.18;;
38851;SDS011;24605;50.092;9.182;2023-09-18T03:27:58;8.70;;;5.05;;
38851;SDS011;24605;50.092;9.182;2023-09-18T03:30:25;9.48;;;5.07;;
38851;SDS011;24605;50.092;9.182;2023-09-18T03:32:52;15.43;;;5.35;;
38851;SDS011;24605;50.092;9.182;2023-09-18T03:35:19;10.95;;;5.75;;
38851;SDS011;24605;50.092;9.182;2023-09-18T03:37:46;9.02;;;5.70;;
38851;SDS011;24605;50.092;9.182;2023-09-18T03:40:15;10.82;;;5.60;;
38851;SDS011;24605;50.092;9.182;2023-09-18T03:42:42;9.80;;;5.65;;
38851;SDS011;24605;50.092;9.182;2023-09-18T03:45:08;8.70;;;6.07;;
38851;SDS011;24605;50.092;9.182;2023-09-18T03:47:35;13.10;;;6.10;;
38851;SDS011;24605;50.092;9.182;2023-09-18T03:50:04;11.40;;;6.60;;
38851;SDS011;24605;50.092;9.182;2023-09-18T03:52:31;9.95;;;5.78;;
38851;SDS011;24605;50.092;9.182;2023-09-18T03:54:58;10.45;;;6.07;;
38851;SDS011;24605;50.092;9.182;2023-09-18T03:57:25;9.95;;;6.40;;
38851;SDS011;24605;50.092;9.182;2023-09-18T03:59:52;11.13;;;6.53;;
38851;SDS011;24605;50.092;9.182;2023-09-18T04:02:19;9.13;;;5.57;;
38851;SDS011;24605;50.092;9.182;2023-09-18T04:04:46;8.27;;;5.82;;
38851;SDS011;24605;50.092;9.182;2023-09-18T04:07:13;9.27;;;6.10;;
38851;SDS011;24605;50.092;9.182;2023-09-18T04:09:41;9.00;;;5.80;;
38851;SDS011;24605;50.092;9.182;2023-09-18T04:12:08;10.93;;;5.55;;
38851;SDS011;24605;50.092;9.182;2023-09-18T04:14:36;8.30;;;5.00;;
38851;SDS011;24605;50.092;9.182;2023-09-18T04:17:02;6.97;;;5.15;;
38851;SDS011;24605;50.092;9.182;2023-09-18T04:19:29;10.40;;;5.40;;
38851;SDS011;24605;50.092;9.182;2023-09-18T04:21:56;9.23;;;5.25;;
38851;SDS011;24605;50.092;9.182;2023-09-18T04:24:23;11.43;;;5.85;;
38851;SDS011;24605;50.092;9.182;2023-09-18T04:26:49;9.80;;;6.22;;
38851;SDS011;24605;50.092;9.182;2023-09-18T04:29:16;12.25;;;6.07;;
38851;SDS011;24605;50.092;9.182;2023-09-18T04:31:45;10.07;;;5.80;;
38851;SDS011;24605;50.092;9.182;2023-09-18T04:34:12;11.48;;;6.43;;
38851;SDS011;24605;50.092;9.182;2023-09-18T04:36:39;8.77;;;5.60;;
38851;SDS011;24605;50.092;9.182;2023-09-18T04:39:05;9.07;;;5.70;;
38851;SDS011;24605;50.092;9.182;2023-09-18T04:41:32;9.73;;;5.95;;
38851;SDS011;24605;50.092;9.182;2023-09-18T04:43:59;8.70;;;6.18;;
38851;SDS011;24605;50.092;9.182;2023-09-18T04:46:26;9.63;;;5.85;;
38851;SDS011;24605;50.092;9.182;2023-09-18T04:48:54;9.43;;;6.53;;
38851;SDS011;24605;50.092;9.182;2023-09-18T04:51:20;13.93;;;6.18;;
38851;SDS011;24605;50.092;9.182;2023-09-18T04:53:47;12.48;;;5.70;;
38851;SDS011;24605;50.092;9.182;2023-09-18T04:56:13;13.93;;;6.70;;
38851;SDS011;24605;50.092;9.182;2023-09-18T04:58:39;8.13;;;5.40;;
38851;SDS011;24605;50.092;9.182;2023-09-18T05:01:06;9.45;;;5.57;;
38851;SDS011;24605;50.092;9.182;2023-09-18T05:03:33;9.95;;;5.20;;
38851;SDS011;24605;50.092;9.182;2023-09-18T05:06:01;8.43;;;5.47;;
38851;SDS011;24605;50.092;9.182;2023-09-18T05:08:28;10.88;;;4.78;;
38851;SDS011;24605;50.092;9.182;2023-09-18T05:10:56;11.45;;;5.80;;
38851;SDS011;24605;50.092;9.182;2023-09-18T05:13:23;17.92;;;5.30;;
38851;SDS011;24605;50.092;9.182;2023-09-18T05:15:49;8.27;;;4.47;;
38851;SDS011;24605;50.092;9.182;2023-09-18T05:18:16;8.88;;;4.43;;
38851;SDS011;24605;50.092;9.182;2023-09-18T05:20:42;9.88;;;4.43;;
38851;SDS011;24605;50.092;9.182;2023-09-18T05:23:10;9.63;;;5.15;;
38851;SDS011;24605;50.092;9.182;2023-09-18T05:25:36;10.32;;;4.45;;
38851;SDS011;24605;50.092;9.182;2023-09-18T05:28:04;13.90;;;5.07;;
38851;SDS011;24605;50.092;9.182;2023-09-18T05:30:32;13.15;;;4.88;;
38851;SDS011;24605;50.092;9.182;2023-09-18T05:33:01;9.82;;;4.78;;
38851;SDS011;24605;50.092;9.182;2023-09-18T05:35:29;9.65;;;4.60;;
38851;SDS011;24605;50.092;9.182;2023-09-18T05:37:56;9.10;;;4.13;;
38851;SDS011;24605;50.092;9.182;2023-09-18T05:40:25;13.75;;;4.65;;
38851;SDS011;24605;50.092;9.182;2023-09-18T05:42:53;11.57;;;4.70;;
38851;SDS011;24605;50.092;9.182;2023-09-18T05:45:20;12.07;;;4.57;;
38851;SDS011;24605;50.092;9.182;2023-09-18T05:47:46;8.77;;;3.95;;
38851;SDS011;24605;50.092;9.182;2023-09-18T05:50:13;9.68;;;4.68;;
38851;SDS011;24605;50.092;9.182;2023-09-18T05:52:41;9.25;;;4.45;;
38851;SDS011;24605;50.092;9.182;2023-09-18T05:55:08;15.10;;;4.35;;
38851;SDS011;24605;50.092;9.182;2023-09-18T05:57:36;7.53;;;4.35;;
38851;SDS011;24605;50.092;9.182;2023-09-18T06:00:03;11.77;;;4.35;;
38851;SDS011;24605;50.092;9.182;2023-09-18T06:02:31;10.40;;;4.38;;
38851;SDS011;24605;50.092;9.182;2023-09-18T06:04:58;10.25;;;4.55;;
38851;SDS011;24605;50.092;9.182;2023-09-18T06:07:26;10.20;;;4.43;;
38851;SDS011;24605;50.092;9.182;2023-09-18T06:09:53;13.93;;;4.82;;
38851;SDS011;24605;50.092;9.182;2023-09-18T06:12:19;8.45;;;4.35;;
38851;SDS011;24605;50.092;9.182;2023-09-18T06:14:48;11.75;;;4.80;;
38851;SDS011;24605;50.092;9.182;2023-09-18T06:17:14;13.70;;;4.57;;
38851;SDS011;24605;50.092;9.182;2023-09-18T06:19:41;10.52;;;4.18;;
38851;SDS011;24605;50.092;9.182;2023-09-18T06:22:08;7.72;;;4.22;;
38851;SDS011;24605;50.092;9.182;2023-09-18T06:24:35;8.43;;;4.30;;
38851;SDS011;24605;50.092;9.182;2023-09-18T06:27:02;8.27;;;4.15;;
38851;SDS011;24605;50.092;9.182;2023-09-18T06:29:29;10.63;;;4.05;;
38851;SDS011;24605;50.092;9.182;2023-09-18T06:31:57;11.38;;;4.15;;
38851;SDS011;24605;50.092;9.182;2023-09-18T06:34:23;11.65;;;4.35;;
38851;SDS011;24605;50.092;9.182;2023-09-18T06:36:49;13.35;;;3.75;;
38851;SDS011;24605;50.092;9.182;2023-09-18T06:39:16;10.55;;;3.45;;
38851;SDS011;24605;50.092;9.182;2023-09-18T06:41:42;14.45;;;3.90;;
38851;SDS011;24605;50.092;9.182;2023-09-18T06:44:09;9.00;;;3.67;;
38851;SDS011;24605;50.092;9.182;2023-09-18T06:46:35;10.43;;;3.80;;
38851;SDS011;24605;50.092;9.182;2023-09-18T06:49:03;11.07;;;3.78;;
38851;SDS011;24605;50.092;9.182;2023-09-18T06:51:29;11.68;;;3.75;;
38851;SDS011;24605;50.092;9.182;2023-09-18T06:53:56;11.63;;;3.38;;
38851;SDS011;24605;50.092;9.182;2023-09-18T06:56:22;13.43;;;3.58;;
38851;SDS011;24605;50.092;9.182;2023-09-18T06:58:49;13.25;;;3.88;;
38851;SDS011;24605;50.092;9.182;2023-09-18T07:01:16;14.20;;;4.22;;
38851;SDS011;24605;50.092;9.182;2023-09-18T07:03:44;11.52;;;3.75;;
38851;SDS011;24605;50.092;9.182;2023-09-18T07:06:13;8.68;;;3.50;;
38851;SDS011;24605;50.092;9.182;2023-09-18T07:08:41;10.90;;;3.75;;
38851;SDS011;24605;50.092;9.182;2023-09-18T07:11:07;11.95;;;3.95;;
38851;SDS011;24605;50.092;9.182;2023-09-18T07:13:34;10.85;;;3.47;;
38851;SDS011;24605;50.092;9.182;2023-09-18T07:16:00;13.05;;;4.18;;
38851;SDS011;24605;50.092;9.182;2023-09-18T07:18:28;9.40;;;3.50;;
38851;SDS011;24605;50.092;9.182;2023-09-18T07:20:54;12.20;;;3.47;;
38851;SDS011;24605;50.092;9.182;2023-09-18T07:23:22;12.18;;;3.13;;
38851;SDS011;24605;50.092;9.182;2023-09-18T07:25:49;10.75;;;3.10;;
38851;SDS011;24605;50.092;9.182;2023-09-18T07:28:15;8.02;;;2.90;;
38851;SDS011;24605;50.092;9.182;2023-09-18T07:30:43;9.68;;;2.92;;
38851;SDS011;24605;50.092;9.182;2023-09-18T07:33:10;12.45;;;3.65;;
38851;SDS011;24605;50.092;9.182;2023-09-18T07:35:37;8.07;;;2.55;;
38851;SDS011;24605;50.092;9.182;2023-09-18T07:38:04;7.00;;;2.28;;
38851;SDS011;24605;50.092;9.182;2023-09-18T07:40:31;8.57;;;2.53;;
38851;SDS011;24605;50.092;9.182;2023-09-18T07:42:58;9.52;;;2.90;;
38851;SDS011;24605;50.092;9.182;2023-09-18T07:45:24;15.45;;;3.45;;
38851;SDS011;24605;50.092;9.182;2023-09-18T07:47:51;11.15;;;2.80;;
38851;SDS011;24605;50.092;9.182;2023-09-18T07:50:17;8.63;;;2.20;;
38851;SDS011;24605;50.092;9.182;2023-09-18T07:52:44;8.52;;;2.47;;
38851;SDS011;24605;50.092;9.182;2023-09-18T07:55:10;9.90;;;2.40;;
38851;SDS011;24605;50.092;9.182;2023-09-18T07:57:38;10.93;;;2.58;;
38851;SDS011;24605;50.092;9.182;2023-09-18T08:00:05;7.00;;;2.10;;
38851;SDS011;24605;50.092;9.182;2023-09-18T08:02:37;9.23;;;2.20;;
38851;SDS011;24605;50.092;9.182;2023-09-18T08:05:04;8.00;;;2.17;;
38851;SDS011;24605;50.092;9.182;2023-09-18T08:07:31;8.43;;;2.00;;
38851;SDS011;24605;50.092;9.182;2023-09-18T08:09:57;9.35;;;2.10;;
38851;SDS011;24605;50.092;9.182;2023-09-18T08:12:24;10.15;;;2.40;;
38851;SDS011;24605;50.092;9.182;2023-09-18T08:14:51;8.65;;;2.30;;
38851;SDS011;24605;50.092;9.182;2023-09-18T08:17:18;9.23;;;2.33;;
38851;SDS011;24605;50.092;9.182;2023-09-18T08:19:44;8.40;;;2.40;;
38851;SDS011;24605;50.092;9.182;2023-09-18T08:22:11;8.65;;;2.67;;
38851;SDS011;24605;50.092;9.182;2023-09-18T08:24:40;10.48;;;2.75;;
38851;SDS011;24605;50.092;9.182;2023-09-18T08:27:06;10.45;;;2.53;;
38851;SDS011;24605;50.092;9.182;2023-09-18T08:29:33;11.45;;;2.65;;
38851;SDS011;24605;50.092;9.182;2023-09-18T08:32:01;10.63;;;2.58;;
38851;SDS011;24605;50.092;9.182;2023-09-18T08:34:27;8.98;;;2.47;;
38851;SDS011;24605;50.092;9.182;2023-09-18T08:36:54;9.38;;;2.10;;
38851;SDS011;24605;50.092;9.182;2023-09-18T08:39:20;10.40;;;2.05;;
38851;SDS011;24605;50.092;9.182;2023-09-18T08:41:47;6.82;;;1.77;;
38851;SDS011;24605;50.092;9.182;2023-09-18T08:44:20;8.77;;;2.10;;
38851;SDS011;24605;50.092;9.182;2023-09-18T08:46:51;7.53;;;1.90;;
38851;SDS011;24605;50.092;9.182;2023-09-18T08:49:19;10.52;;;2.47;;
38851;SDS011;24605;50.092;9.182;2023-09-18T08:51:47;8.07;;;1.90;;
38851;SDS011;24605;50.092;9.182;2023-09-18T08:54:15;6.25;;;1.95;;
38851;SDS011;24605;50.092;9.182;2023-09-18T08:56:41;7.63;;;1.90;;
38851;SDS011;24605;50.092;9.182;2023-09-18T08:59:08;7.25;;;1.63;;
38851;SDS011;24605;50.092;9.182;2023-09-18T09:01:35;7.50;;;1.70;;
38851;SDS011;24605;50.092;9.182;2023-09-18T09:04:01;7.60;;;1.67;;
38851;SDS011;24605;50.092;9.182;2023-09-18T09:06:30;7.60;;;1.48;;
38851;SDS011;24605;50.092;9.182;2023-09-18T09:08:57;7.80;;;1.60;;
38851;SDS011;24605;50.092;9.182;2023-09-18T09:11:24;8.07;;;1.75;;
38851;SDS011;24605;50.092;9.182;2023-09-18T09:13:54;5.20;;;1.20;;
38851;SDS011;24605;50.092;9.182;2023-09-18T09:16:36;6.10;;;1.80;;
38851;SDS011;24605;50.092;9.182;2023-09-18T09:19:05;7.68;;;1.75;;
38851;SDS011;24605;50.092;9.182;2023-09-18T09:21:40;6.28;;;1.42;;
38851;SDS011;24605;50.092;9.182;2023-09-18T09:24:09;8.35;;;2.20;;
38851;SDS011;24605;50.092;9.182;2023-09-18T09:26:39;5.47;;;1.90;;
38851;SDS011;24605;50.092;9.182;2023-09-18T09:29:15;7.80;;;2.10;;
38851;SDS011;24605;50.092;9.182;2023-09-18T09:31:43;7.93;;;1.63;;
38851;SDS011;24605;50.092;9.182;2023-09-18T09:34:09;6.22;;;1.60;;
38851;SDS011;24605;50.092;9.182;2023-09-18T09:36:36;7.25;;;1.73;;
38851;SDS011;24605;50.092;9.182;2023-09-18T09:39:06;9.23;;;1.73;;
38851;SDS011;24605;50.092;9.182;2023-09-18T09:41:33;9.63;;;1.83;;
38851;SDS011;24605;50.092;9.182;2023-09-18T09:44:00;8.15;;;1.40;;
38851;SDS011;24605;50.092;9.182;2023-09-18T09:46:27;8.13;;;1.35;;
38851;SDS011;24605;50.092;9.182;2023-09-18T09:49:00;9.18;;;1.30;;
38851;SDS011;24605;50.092;9.182;2023-09-18T09:53:54;4.65;;;1.20;;
38851;SDS011;24605;50.092;9.182;2023-09-18T09:56:24;6.82;;;1.35;;
38851;SDS011;24605;50.092;9.182;2023-09-18T09:59:06;5.13;;;1.30;;
38851;SDS011;24605;50.092;9.182;2023-09-18T10:01:33;8.85;;;1.50;;
38851;SDS011;24605;50.092;9.182;2023-09-18T10:04:01;7.38;;;1.50;;
38851;SDS011;24605;50.092;9.182;2023-09-18T10:06:33;5.20;;;1.27;;
38851;SDS011;24605;50.092;9.182;2023-09-18T10:09:01;6.32;;;1.55;;
38851;SDS011;24605;50.092;9.182;2023-09-18T10:11:30;7.63;;;1.40;;
38851;SDS011;24605;50.092;9.182;2023-09-18T10:13:58;7.90;;;1.33;;
38851;SDS011;24605;50.092;9.182;2023-09-18T10:16:26;8.55;;;1.50;;
38851;SDS011;24605;50.092;9.182;2023-09-18T10:19:01;7.80;;;1.88;;
38851;SDS011;24605;50.092;9.182;2023-09-18T10:21:35;7.50;;;1.52;;
38851;SDS011;24605;50.092;9.182;2023-09-18T10:24:09;5.47;;;1.40;;
38851;SDS011;24605;50.092;9.182;2023-09-18T10:26:44;5.70;;;1.23;;
38851;SDS011;24605;50.092;9.182;2023-09-18T10:29:16;6.15;;;1.30;;
38851;SDS011;24605;50.092;9.182;2023-09-18T10:31:46;10.48;;;1.73;;
38851;SDS011;24605;50.092;9.182;2023-09-18T10:34:14;4.63;;;1.25;;
38851;SDS011;24605;50.092;9.182;2023-09-18T10:36:43;8.05;;;1.48;;
38851;SDS011;24605;50.092;9.182;2023-09-18T10:39:12;7.18;;;1.67;;
38851;SDS011;24605;50.092;9.182;2023-09-18T10:41:45;6.78;;;1.20;;
38851;SDS011;24605;50.092;9.182;2023-09-18T10:44:13;8.77;;;1.48;;
38851;SDS011;24605;50.092;9.182;2023-09-18T10:46:41;5.32;;;1.50;;
38851;SDS011;24605;50.092;9.182;2023-09-18T10:49:08;6.40;;;1.52;;
38851;SDS011;24605;50.092;9.182;2023-09-18T10:51:34;5.50;;;1.45;;
38851;SDS011;24605;50.092;9.182;2023-09-18T10:54:06;5.97;;;1.30;;
38851;SDS011;24605;50.092;9.182;2023-09-18T10:56:33;3.65;;;1.30;;
38851;SDS011;24605;50.092;9.182;2023-09-18T10:59:02;7.22;;;1.83;;
38851;SDS011;24605;50.092;9.182;2023-09-18T11:01:31;7.85;;;1.65;;
38851;SDS011;24605;50.092;9.182;2023-09-18T11:03:58;5.35;;;1.40;;
38851;SDS011;24605;50.092;9.182;2023-09-18T11:06:27;7.82;;;2.33;;
38851;SDS011;24605;50.092;9.182;2023-09-18T11:08:58;9.43;;;1.60;;
38851;SDS011;24605;50.092;9.182;2023-09-18T11:11:29;6.55;;;1.42;;
38851;SDS011;24605;50.092;9.182;2023-09-18T11:13:58;9.73;;;2.38;;
38851;SDS011;24605;50.092;9.182;2023-09-18T11:16:36;4.80;;;1.02;;
38851;SDS011;24605;50.092;9.182;2023-09-18T11:19:05;8.38;;;1.40;;
38851;SDS011;24605;50.092;9.182;2023-09-18T11:21:35;5.85;;;1.48;;
38851;SDS011;24605;50.092;9.182;2023-09-18T11:24:02;7.13;;;1.60;;
38851;SDS011;24605;50.092;9.182;2023-09-18T11:26:30;5.55;;;1.33;;
38851;SDS011;24605;50.092;9.182;2023-09-18T11:29:00;4.82;;;1.17;;
38851;SDS011;24605;50.092;9.182;2023-09-18T11:31:47;7.95;;;1.80;;
38851;SDS011;24605;50.092;9.182;2023-09-18T11:34:18;4.15;;;1.38;;
38851;SDS011;24605;50.092;9.182;2023-09-18T11:36:47;5.53;;;1.45;;
38851;SDS011;24605;50.092;9.182;2023-09-18T11:39:14;4.40;;;1.27;;
38851;SDS011;24605;50.092;9.182;2023-09-18T11:42:06;5.88;;;1.70;;
38851;SDS011;24605;50.092;9.182;2023-09-18T11:44:35;6.97;;;1.35;;
38851;SDS011;24605;50.092;9.182;2023-09-18T11:47:07;5.95;;;1.40;;
38851;SDS011;24605;50.092;9.182;2023-09-18T11:49:37;9.93;;;1.80;;
38851;SDS011;24605;50.092;9.182;2023-09-18T11:52:06;6.18;;;1.48;;
38851;SDS011;24605;50.092;9.182;2023-09-18T11:54:33;5.57;;;1.70;;
38851;SDS011;24605;50.092;9.182;2023-09-18T11:57:02;4.88;;;1.40;;
38851;SDS011;24605;50.092;9.182;2023-09-18T11:59:34;5.63;;;1.50;;
38851;SDS011;24605;50.092;9.182;2023-09-18T12:02:03;7.05;;;1.40;;
38851;SDS011;24605;50.092;9.182;2023-09-18T12:04:34;5.07;;;1.50;;
38851;SDS011;24605;50.092;9.182;2023-09-18T12:07:01;5.03;;;1.48;;
38851;SDS011;24605;50.092;9.182;2023-09-18T12:09:28;5.47;;;1.48;;
38851;SDS011;24605;50.092;9.182;2023-09-18T12:11:54;8.65;;;1.58;;
38851;SDS011;24605;50.092;9.182;2023-09-18T12:14:22;5.78;;;1.42;;
38851;SDS011;24605;50.092;9.182;2023-09-18T12:16:48;4.55;;;1.58;;
38851;SDS011;24605;50.092;9.182;2023-09-18T12:19:16;4.82;;;1.73;;
38851;SDS011;24605;50.092;9.182;2023-09-18T12:21:45;7.25;;;1.73;;
38851;SDS011;24605;50.092;9.182;2023-09-18T12:24:13;4.63;;;1.30;;
38851;SDS011;24605;50.092;9.182;2023-09-18T12:26:39;6.20;;;1.52;;
38851;SDS011;24605;50.092;9.182;2023-09-18T12:29:06;4.88;;;1.45;;
38851;SDS011;24605;50.092;9.182;2023-09-18T12:31:35;8.07;;;1.60;;
38851;SDS011;24605;50.092;9.182;2023-09-18T12:34:02;8.73;;;1.48;;
38851;SDS011;24605;50.092;9.182;2023-09-18T12:36:28;5.72;;;1.83;;
38851;SDS011;24605;50.092;9.182;2023-09-18T12:38:58;7.45;;;1.50;;
38851;SDS011;24605;50.092;9.182;2023-09-18T12:41:25;4.75;;;1.35;;
38851;SDS011;24605;50.092;9.182;2023-09-18T12:43:53;6.05;;;1.50;;
38851;SDS011;24605;50.092;9.182;2023-09-18T12:46:20;13.10;;;1.65;;
38851;SDS011;24605;50.092;9.182;2023-09-18T12:48:47;6.80;;;1.80;;
38851;SDS011;24605;50.092;9.182;2023-09-18T12:51:14;6.05;;;1.30;;
38851;SDS011;24605;50.092;9.182;2023-09-18T12:53:44;8.52;;;1.95;;
38851;SDS011;24605;50.092;9.182;2023-09-18T12:56:13;5.45;;;1.42;;
38851;SDS011;24605;50.092;9.182;2023-09-18T12:58:40;6.60;;;1.40;;
38851;SDS011;24605;50.092;9.182;2023-09-18T13:01:08;6.47;;;1.38;;
38851;SDS011;24605;50.092;9.182;2023-09-18T13:03:41;6.05;;;1.60;;
38851;SDS011;24605;50.092;9.182;2023-09-18T13:06:09;7.75;;;1.85;;
38851;SDS011;24605;50.092;9.182;2023-09-18T13:08:36;8.68;;;1.60;;
38851;SDS011;24605;50.092;9.182;2023-09-18T13:11:03;8.55;;;1.67;;
38851;SDS011;24605;50.092;9.182;2023-09-18T13:13:32;5.75;;;1.52;;
38851;SDS011;24605;50.092;9.182;2023-09-18T13:15:59;10.20;;;2.25;;
38851;SDS011;24605;50.092;9.182;2023-09-18T13:18:29;4.85;;;1.60;;
38851;SDS011;24605;50.092;9.182;2023-09-18T13:20:55;7.93;;;1.63;;
38851;SDS011;24605;50.092;9.182;2023-09-18T13:23:27;5.15;;;1.52;;
38851;SDS011;24605;50.092;9.182;2023-09-18T13:25:59;5.65;;;1.60;;
38851;SDS011;24605;50.092;9.182;2023-09-18T13:28:25;5.60;;;1.60;;
38851;SDS011;24605;50.092;9.182;2023-09-18T13:30:53;7.50;;;1.90;;
38851;SDS011;24605;50.092;9.182;2023-09-18T13:33:20;7.40;;;1.60;;
38851;SDS011;24605;50.092;9.182;2023-09-18T13:35:47;6.85;;;2.00;;
38851;SDS011;24605;50.092;9.182;2023-09-18T13:38:13;7.78;;;1.75;;
38851;SDS011;24605;50.092;9.182;2023-09-18T13:40:40;6.88;;;1.50;;
38851;SDS011;24605;50.092;9.182;2023-09-18T13:43:07;8.48;;;1.70;;
38851;SDS011;24605;50.092;9.182;2023-09-18T13:45:35;6.45;;;1.40;;
38851;SDS011;24605;50.092;9.182;2023-09-18T13:48:03;6.35;;;2.05;;
38851;SDS011;24605;50.092;9.182;2023-09-18T13:50:31;5.22;;;1.40;;
38851;SDS011;24605;50.092;9.182;2023-09-18T13:52:58;5.78;;;1.75;;
38851;SDS011;24605;50.092;9.182;2023-09-18T13:55:24;5.80;;;1.42;;
38851;SDS011;24605;50.092;9.182;2023-09-18T13:57:51;7.93;;;1.75;;
38851;SDS011;24605;50.092;9.182;2023-09-18T14:00:18;7.05;;;1.75;;
38851;SDS011;24605;50.092;9.182;2023-09-18T14:02:45;5.15;;;1.45;;
38851;SDS011;24605;50.092;9.182;2023-09-18T14:05:13;4.57;;;1.40;;
38851;SDS011;24605;50.092;9.182;2023-09-18T14:07:40;6.80;;;1.70;;
38851;SDS011;24605;50.092;9.182;2023-09-18T14:10:07;6.82;;;1.70;;
38851;SDS011;24605;50.092;9.182;2023-09-18T14:12:36;6.03;;;1.58;;
38851;SDS011;24605;50.092;9.182;2023-09-18T14:15:03;6.50;;;1.70;;
38851;SDS011;24605;50.092;9.182;2023-09-18T14:17:30;5.32;;;1.48;;
38851;SDS011;24605;50.092;9.182;2023-09-18T14:19:56;5.57;;;1.60;;
38851;SDS011;24605;50.092;9.182;2023-09-18T14:22:25;5.80;;;1.50;;
38851;SDS011;24605;50.092;9.182;2023-09-18T14:24:52;4.82;;;1.33;;
38851;SDS011;24605;50.092;9.182;2023-09-18T14:27:18;6.85;;;1.70;;
38851;SDS011;24605;50.092;9.182;2023-09-18T14:29:45;4.05;;;1.33;;
38851;SDS011;24605;50.092;9.182;2023-09-18T14:32:11;4.95;;;1.75;;
38851;SDS011;24605;50.092;9.182;2023-09-18T14:34:38;8.07;;;1.88;;
38851;SDS011;24605;50.092;9.182;2023-09-18T14:37:04;5.72;;;1.48;;
38851;SDS011;24605;50.092;9.182;2023-09-18T14:39:32;7.00;;;1.90;;
38851;SDS011;24605;50.092;9.182;2023-09-18T14:41:59;8.40;;;1.45;;
38851;SDS011;24605;50.092;9.182;2023-09-18T14:44:26;6.43;;;1.52;;
38851;SDS011;24605;50.092;9.182;2023-09-18T14:46:53;6.47;;;1.63;;
38851;SDS011;24605;50.092;9.182;2023-09-18T14:49:20;5.95;;;1.60;;
38851;SDS011;24605;50.092;9.182;2023-09-18T14:51:46;4.85;;;1.35;;